Flight Track Log - Related Links

Times and Time Zones

All times are in EDT time to prevent confusion due to time zone crossing. See the N129UP flight status page for this flight to view local times or setup timezone preferences in your user account.

Time Position Orientation Groundspeed Altitude Reporting Facility
EDT Latitude Longitude Course Direction KTS MPH feet Rate Location/Type
Thu 05:04:08 PM 38.1640 -85.7410 165° South 176 203 1,000  Level FlightAware ADS-B
Thu 05:04:43 PM 38.1360 -85.7320 166° South 180 207 2,600 2,200 Climbing FlightAware ADS-B
Thu 05:05:08 PM 38.1140 -85.7310 178° South 217 250 3,200 1,636 Climbing FlightAware ADS-B
Thu 05:05:38 PM 38.0810 -85.7130 157° South 277 319 4,100 2,000 Climbing FlightAware ADS-B
Thu 05:05:53 PM 38.0760 -85.6930 108° East 286 329 4,700 1,800 Climbing FlightAware ADS-B
Thu 05:06:18 PM 38.0730 -85.6450 95° East 314 361 5,300 1,200 Climbing FlightAware ADS-B
Thu 05:06:23 PM 38.0730 -85.6380 90° East 315 362 5,300  Level FlightAware ADS-B
Thu 05:07:03 PM 38.0740 -85.5660 89° East 311 358 5,300 1,114 Level FlightAware ADS-B
Thu 05:07:33 PM 38.0740 -85.5090 90° East 313 360 6,600 3,343 Climbing FlightAware ADS-B
Thu 05:08:13 PM 38.0730 -85.4370 91° East 299 344 9,200 3,075 Climbing FlightAware ADS-B
Thu 05:08:53 PM 38.0730 -85.3680 90° East 302 348 10,700 2,471 Climbing FlightAware ADS-B
Thu 05:09:38 PM 38.0700 -85.2830 93° East 324 373 12,700 2,612 Climbing FlightAware ADS-B
Thu 05:10:18 PM 38.0620 -85.2090 98° East 335 386 14,400 2,550 Climbing FlightAware ADS-B
Thu 05:10:58 PM 38.0510 -85.1320 100° East 351 404 16,100 1,765 Climbing FlightAware ADS-B
Thu 05:11:43 PM 38.0370 -85.0350 100° East 392 451 16,900 1,129 Climbing FlightAware ADS-B
Thu 05:12:23 PM 38.0260 -84.9390 98° East 430 495 17,700 1,553 Climbing FlightAware ADS-B
Thu 05:13:08 PM 38.0110 -84.8220 99° East 448 516 19,100 1,976 Climbing FlightAware ADS-B
Thu 05:13:48 PM 37.9980 -84.7190 99° East 459 528 20,500 1,800 Climbing FlightAware ADS-B
Thu 05:14:28 PM 37.9850 -84.6100 99° East 476 548 21,500 1,516 Climbing FlightAware ADS-B
Thu 05:15:23 PM 37.9770 -84.4490 94° East 509 586 22,900 1,740 Climbing FlightAware ADS-B
Thu 05:16:08 PM 37.9910 -84.3110 83° East 521 600 24,400 1,976 Climbing FlightAware ADS-B
Thu 05:16:48 PM 38.0100 -84.1910 79° East 523 602 25,700 2,047 Climbing FlightAware ADS-B
Thu 05:17:33 PM 38.0310 -84.0590 79° East 518 596 27,300 2,080 Climbing FlightAware ADS-B
Thu 05:18:03 PM 38.0430 -83.9760 80° East 513 590 28,300 1,800 Climbing FlightAware ADS-B
Thu 05:19:03 PM 38.0700 -83.7960 79° East 511 588 30,000 1,620 Climbing FlightAware ADS-B
Thu 05:19:43 PM 38.0870 -83.6810 79° East 509 586 31,000 706 Climbing FlightAware ADS-B
Thu 05:20:28 PM 38.1070 -83.5440 79° East 505 581 31,000  Level FlightAware ADS-B
Thu 05:21:08 PM 38.1240 -83.4250 80° East 497 572 31,000  Level FlightAware ADS-B
Thu 05:21:43 PM 38.1380 -83.3310 79° East 495 570 31,000  Level FlightAware ADS-B
Thu 05:22:28 PM 38.1550 -83.2150 79° East 496 571 31,000  Level FlightAware ADS-B
Thu 05:23:08 PM 38.1700 -83.1180 79° East 496 571 31,000  Level FlightAware ADS-B
Thu 05:23:58 PM 38.1890 -82.9960 79° East 496 571 31,000  Level FlightAware ADS-B
Thu 05:24:38 PM 38.2040 -82.8990 79° East 496 571 31,000  Level FlightAware ADS-B
Thu 05:25:18 PM 38.2190 -82.8010 79° East 496 571 31,000  Level FlightAware ADS-B
Thu 05:25:53 PM 38.2390 -82.6020 83° East 506 582 31,000  Level FlightAware ADS-B
Thu 05:26:38 PM 38.2560 -82.4840 80° East 506 582 31,000  Level FlightAware ADS-B
Thu 05:27:28 PM 38.2730 -82.3590 80° East 506 582 31,000  Level FlightAware ADS-B
Thu 05:28:08 PM 38.2870 -82.2590 80° East 506 582 31,000  Level FlightAware ADS-B
Thu 05:28:48 PM 38.3010 -82.1600 80° East 506 582 31,000  Level FlightAware ADS-B
Thu 05:29:28 PM 38.3140 -82.0600 81° East 506 582 31,000  Level FlightAware ADS-B
Thu 05:30:08 PM 38.3280 -81.9600 80° East 506 582 31,000  Level FlightAware ADS-B
Thu 05:30:58 PM 38.3460 -81.8350 80° East 506 582 31,000  Level FlightAware ADS-B
Thu 05:31:38 PM 38.3590 -81.7350 81° East 506 582 31,000  Level FlightAware ADS-B
Thu 05:32:18 PM 38.3730 -81.6350 80° East 506 582 31,000  Level FlightAware ADS-B
Thu 05:32:58 PM 38.3870 -81.5350 80° East 506 582 31,000  Level FlightAware ADS-B
Thu 05:33:38 PM 38.4010 -81.4350 80° East 506 582 31,000  Level FlightAware ADS-B
Thu 05:34:28 PM 38.4180 -81.3100 80° East 506 582 31,000  Level FlightAware ADS-B
Thu 05:35:08 PM 38.4320 -81.2100 80° East 506 582 31,000  Level FlightAware ADS-B
Thu 05:35:48 PM 38.4460 -81.1100 80° East 506 582 31,000  Level FlightAware ADS-B
Thu 05:36:18 PM 38.8970 -80.9850 12° North 515 593 31,000  Level FlightAware ADS-B
Thu 05:36:58 PM 38.9510 -80.9080 48° Northeast 515 593 31,000  Level FlightAware ADS-B
Thu 05:37:38 PM 39.0060 -80.8310 47° Northeast 515 593 31,000  Level FlightAware ADS-B
Thu 05:38:18 PM 39.0600 -80.7530 48° Northeast 515 593 31,000  Level FlightAware ADS-B
Thu 05:39:08 PM 39.1280 -80.6560 48° Northeast 515 593 31,000  Level FlightAware ADS-B
Thu 05:39:48 PM 39.1820 -80.5780 48° Northeast 515 593 31,000  Level FlightAware ADS-B
Thu 05:40:28 PM 39.2360 -80.5010 48° Northeast 515 593 31,000  Level FlightAware ADS-B
Thu 05:41:08 PM 39.2900 -80.4230 48° Northeast 515 593 31,000  Level FlightAware ADS-B
Thu 05:41:53 PM 39.4330 -80.2300 46° Northeast 508 585 31,000  Level FlightAware ADS-B
Thu 05:42:33 PM 39.4950 -80.1410 48° Northeast 508 585 31,000  Level FlightAware ADS-B
Thu 05:43:48 PM 39.6130 -79.9700 48° Northeast 507 583 31,000  Level FlightAware ADS-B
Thu 05:44:23 PM 39.6640 -79.8970 48° Northeast 507 583 31,000  Level FlightAware ADS-B
Thu 05:45:23 PM 39.7560 -79.7590 49° Northeast 514 592 31,000  Level FlightAware ADS-B
Thu 05:46:08 PM 39.8280 -79.6550 48° Northeast 510 587 31,000  Level FlightAware ADS-B
Thu 05:46:48 PM 39.8940 -79.5550 49° Northeast 507 583 31,000  Level FlightAware ADS-B
Thu 05:47:28 PM 39.9600 -79.4570 49° Northeast 506 582 31,000  Level FlightAware ADS-B
Thu 05:48:13 PM 40.0260 -79.3580 49° Northeast 507 583 31,000  Level FlightAware ADS-B
Thu 05:48:53 PM 40.0850 -79.2700 49° Northeast 509 586 31,000  Level FlightAware ADS-B
Thu 05:49:48 PM 40.1700 -79.1410 49° Northeast 509 586 31,000  Level FlightAware ADS-B
Thu 05:50:48 PM 40.2580 -79.0080 49° Northeast 504 580 31,000  Level FlightAware ADS-B
Thu 05:51:28 PM 40.3180 -78.9180 49° Northeast 502 578 31,000  Level FlightAware ADS-B
Thu 05:52:08 PM 40.3810 -78.8230 49° Northeast 509 586 31,000  Level FlightAware ADS-B
Thu 05:52:54 PM 40.4531 -78.7119 49° Northeast 505 581 31,000  Level New York Center
Thu 05:53:54 PM 40.5461 -78.5694 49° Northeast 512 589 31,000  Level New York Center
Thu 05:54:51 PM 40.6364 -78.4292 50° Northeast 512 589 31,000  Level New York Center
Thu 05:55:54 PM 40.7269 -78.2886 50° Northeast 507 583 31,000  Level New York Center
Thu 05:56:54 PM 40.8169 -78.1478 50° Northeast 507 583 31,000  Level New York Center
Thu 05:57:51 PM 40.9000 -78.0167 50° Northeast 507 583 31,000  Level New York Center
Thu 05:58:52 PM 40.9742 -77.8622 58° Northeast 507 583 31,000  Level New York Center
Thu 05:59:52 PM 41.0481 -77.7019 59° Northeast 507 583 31,000  Level New York Center
Thu 06:00:53 PM 41.1181 -77.5383 60° Northeast 502 578 31,000  Level New York Center
Thu 06:06:33 PM 41.5300 -76.5930 60° Northeast 514 592 31,000  Level FlightAware ADS-B
Thu 06:06:53 PM 41.5629 -76.5170 60° Northeast 515 593 31,000  Level FlightAware ADS-B
Thu 06:07:29 PM 41.6048 -76.4176 61° Northeast 515 593 31,000  Level FlightAware ADS-B
Thu 06:08:11 PM 41.6543 -76.3011 60° Northeast 517 595 31,000  Level FlightAware ADS-B
Thu 06:08:41 PM 41.6904 -76.2177 60° Northeast 516 594 31,000  Level FlightAware ADS-B
Thu 06:09:13 PM 41.7270 -76.1288 61° Northeast 516 594 31,000  Level FlightAware ADS-B
Thu 06:09:43 PM 41.7624 -76.0454 60° Northeast 516 594 31,000  Level FlightAware ADS-B
Thu 06:10:23 PM 41.8060 -75.9400 61° Northeast 513 590 31,000  Level FlightAware ADS-B
Thu 06:10:27 PM 41.8136 -75.9231 59° Northeast 514 592 31,000  Level FlightAware ADS-B
Thu 06:12:13 PM 41.9290 -75.6460 61° Northeast 516 594 31,000  Level FlightAware ADS-B
Thu 06:12:53 PM 41.9730 -75.5380 61° Northeast 517 595 31,000  Level FlightAware ADS-B
Thu 06:13:33 PM 42.0130 -75.4420 61° Northeast 517 595 31,000  Level FlightAware ADS-B
Thu 06:14:18 PM 42.0760 -75.2880 61° Northeast 522 601 31,000  Level FlightAware ADS-B
Thu 06:14:58 PM 42.1310 -75.1690 58° Northeast 521 600 31,000  Level FlightAware ADS-B
Thu 06:15:43 PM 42.1890 -75.0460 57° Northeast 521 600 31,000  Level FlightAware ADS-B
Thu 06:16:38 PM 42.2530 -74.9060 58° Northeast 521 600 31,000  Level FlightAware ADS-B
Thu 06:17:33 PM 42.3200 -74.7590 58° Northeast 521 600 31,000 -313 Level FlightAware ADS-B
Thu 06:18:33 PM 42.3970 -74.5910 58° Northeast 505 581 30,400 -1,200 Descending FlightAware ADS-B
Thu 06:19:13 PM 42.4490 -74.4710 60° Northeast 499 574 29,000 -1,360 Descending FlightAware ADS-B
Thu 06:19:48 PM 42.4700 -74.3700 74° East 523 602 28,700 -1,326 Descending FlightAware ADS-B
Thu 06:20:48 PM 42.5000 -74.1780 78° East 508 585 26,900 -1,886 Descending FlightAware ADS-B
Thu 06:21:33 PM 42.5240 -74.0350 77° East 509 586 25,400 -2,047 Descending FlightAware ADS-B
Thu 06:22:13 PM 42.5440 -73.9110 78° East 507 583 24,000 -1,976 Descending FlightAware ADS-B
Thu 06:22:58 PM 42.5650 -73.7810 78° East 502 578 22,600 -1,906 Descending FlightAware ADS-B
Thu 06:23:38 PM 42.5850 -73.6560 78° East 492 566 21,300 -1,950 Descending FlightAware ADS-B
Thu 06:24:18 PM 42.6030 -73.5370 78° East 478 550 20,000 -575 Descending FlightAware ADS-B
Thu 06:24:58 PM 42.5770 -73.7070 258° West 19,100 -300 Descending FlightAware ADS-B
Thu 06:26:38 PM 42.6510 -73.2350 78° East 19,000 -38 Descending FlightAware ADS-B
Thu 06:27:38 PM 42.6880 -72.9980 78° East 456 525 19,000  Level FlightAware ADS-B
Thu 06:28:18 PM 42.7230 -72.8760 69° East 439 505 19,000 -160 Level FlightAware ADS-B
Thu 06:28:53 PM 42.7480 -72.7910 68° East 444 511 18,800 -600 Descending FlightAware ADS-B
Thu 06:29:58 PM 42.7560 -72.7060 83° East 437 503 18,000 -1,257 Descending FlightAware ADS-B
Thu 06:30:38 PM 42.7600 -72.6840 76° East 434 499 16,600 -2,475 Descending FlightAware ADS-B
Thu 06:31:18 PM 42.7840 -72.4090 83° East 431 496 14,700 -3,388 Descending FlightAware ADS-B
Thu 06:32:03 PM 42.7940 -72.2790 84° East 431 496 11,800 -2,175 Descending FlightAware ADS-B
Thu 06:32:38 PM 42.8020 -72.1940 83° East 431 496 11,800 -1,200 Level FlightAware ADS-B
Thu 06:33:28 PM 42.8110 -72.0610 85° East 346 398 10,100 -1,800 Descending FlightAware ADS-B
Thu 06:33:58 PM 42.8130 -72.0080 87° East 347 399 9,400 -1,350 Descending FlightAware ADS-B
Thu 06:34:08 PM 42.8120 -71.9840 93° East 345 397 9,200 -1,800 Descending FlightAware ADS-B
Thu 06:34:38 PM 42.8080 -71.9150 94° East 341 392 8,200 -1,700 Descending FlightAware ADS-B
Thu 06:35:08 PM 42.8060 -71.8600 93° East 331 381 7,500 -1,418 Descending FlightAware ADS-B
Thu 06:35:33 PM 42.8040 -71.8020 93° East 304 350 6,900 -1,636 Descending FlightAware ADS-B
Thu 06:36:03 PM 42.8000 -71.7460 96° East 288 331 6,000 -1,900 Descending FlightAware ADS-B
Thu 06:36:33 PM 42.7970 -71.6950 95° East 278 320 5,000 -1,855 Descending FlightAware ADS-B
Thu 06:36:58 PM 42.7930 -71.6500 97° East 269 310 4,300 -1,636 Descending FlightAware ADS-B
Thu 06:37:28 PM 42.7880 -71.6020 98° East 259 298 3,500 -1,200 Descending FlightAware ADS-B
Thu 06:38:08 PM 42.7890 -71.5370 89° East 239 275 2,900 -514 Descending FlightAware ADS-B
Thu 06:38:38 PM 42.7910 -71.4940 86° East 225 259 2,900 -109 Level FlightAware ADS-B
Thu 06:39:03 PM 42.7970 -71.4610 76° East 207 238 2,800 -545 Descending FlightAware ADS-B
Thu 06:39:33 PM 42.8030 -71.4220 78° East 188 216 2,400 -400 Descending FlightAware ADS-B
Thu 06:40:03 PM 42.8080 -71.3880 79° East 178 205 2,400  Level FlightAware ADS-B
Thu 06:40:18 PM 42.8140 -71.3730 61° Northeast 167 192 2,400  Level FlightAware ADS-B
Thu 06:40:28 PM 42.8200 -71.3680 31° Northeast 172 198 2,400 -960 Level FlightAware ADS-B
Thu 06:40:43 PM 42.8320 -71.3710 350° North 176 203 2,000 -1,400 Descending FlightAware ADS-B
Thu 06:40:58 PM 42.8410 -71.3800 324° Northwest 158 182 1,700 -1,000 Descending FlightAware ADS-B
Thu 06:41:13 PM 42.8510 -71.3860 336° Northwest 140 161 1,500 -450 Descending FlightAware ADS-B
Thu 06:41:38 PM 42.8640 -71.3940 336° Northwest 113 130 1,400 -436 Descending FlightAware ADS-B
Thu 06:42:08 PM 42.8780 -71.4020 337° Northwest 111 128 1,100 -700 Descending FlightAware ADS-B
Thu 06:42:38 PM 42.8950 -71.4120 337° Northwest 111 128 700 -764 Descending FlightAware ADS-B
Thu 06:43:03 PM 42.9080 -71.4200 336° Northwest 123 142 400 -720 Descending FlightAware ADS-B
Thu 06:43:28 PM 42.9210 -71.4270 338° Northwest 112 129 100 -360 Descending FlightAware ADS-B
Thu 06:43:53 PM 42.9310 -71.4340 333° Northwest 112 129 100 279 Level FlightAware ADS-B
Thu 06:44:11 PM 42.9400 -71.4417 333° Northwest 123 142 300 14,538 Climbing Boston Center
Thu 06:45:11 PM 42.9714 -71.4611 336° Northwest 123 142 19,000 9,273 Climbing Boston Center
Thu 06:46:12 PM 43.0028 -71.4833 333° Northwest 123 142 19,000  Level Boston Center
Thu 06:47:12 PM 43.0342 -71.5028 336° Northwest 123 142 19,000  Level Boston Center
Thu 06:49:00 PM 42.9328 -71.4358 156° South  Level Estimated
Thu 06:56:00 PM 42.9328 -71.4358 156° South  Level Estimated
Thu 06:57:00 PM 42.9328 -71.4358 156° South  Level Estimated
Thu 06:58:00 PM 42.9328 -71.4358 156° South  Level Estimated
Thu 06:59:00 PM 42.9328 -71.4358 156° South  Level Estimated

Login

Don't have an account? Register now (free) for customized features, flight alerts, and more!